Crew | Aerofun Virtual



 METAR AND TAF INFORMATION
METAR FOR LELN
ADDS - METARS form results

(1937 UTC 21 July 2019)
Data provider http://aviationweather.gov/metar/data/
 
METAR text: LELN 211930Z AUTO 13003KT 9999 NCD 29/03 Q1021
Conditions at: LELN (LEON/VIRGEN CAMI, ES) observed 1930 UTC 21 July 2019
Temperature: 29.0°C (84°F)
Dewpoint: 3.0°C (37°F) [RH = 19%]
Pressure (altimeter): 30.15 inches Hg (1021.0 mb)
Winds: from the SE (130 degrees) at 3 MPH (3 knots; 1.5 m/s)
Visibility: 6 or more miles (10+ km)
Ceiling: at least 12,000 feet AGL
Clouds: sky clear below 12,000 feet AGL
Weather: no significant weather observed at this time

METAR text: LELN 211900Z 15004KT 120V200 CAVOK 30/03 Q1021
Conditions at: LELN (LEON/VIRGEN CAMI, ES) observed 1900 UTC 21 July 2019
Temperature: 30.0°C (86°F)
Dewpoint: 3.0°C (37°F) [RH = 18%]
Pressure (altimeter): 30.15 inches Hg (1021.0 mb)
Winds: from the SSE (150 degrees) at 5 MPH (4 knots; 2.1 m/s)
Visibility: 6 or more miles (10+ km)
Ceiling: ceiling and visibility are OK
Clouds: unknown
Weather: no significant weather observed at this time

Forecast for: LELN (LEON/VIRGEN CAMI, ES)
Text: TAF LELN 211700Z 2118/2203 VRB05KT CAVOK
Forecast period: 1800 UTC 21 July 2019 to 0300 UTC 22 July 2019
Forecast type: FROM: standard forecast or significant change
Winds: variable direction winds at 6 MPH (5 knots; 2.6 m/s)
Visibility: 6 or more miles 10+ km)
Ceiling: unknown
Clouds: missing
Weather: NSW  (no significant weather)
Text: TEMPO 2120/2123 02010KT
Forecast period: 2000 to 2300 UTC 21 July 2019
Forecast type: TEMPORARY: The following changes expected for less than half the time period
Winds: from the NNE (20 degrees) at 12 MPH (10 knots; 5.1 m/s)
Visibility: missing
Ceiling: unknown
Clouds: missing
Weather: no significant weather forecast for this period

 AIRPORT MAP

 RUNWAY INFORMATION
Runway 05 Runway length 6890 ft Runway width 148 ft
Runway elevation 2994 ft Runway displaced threshold 0 ft Runway heading 45
Runway 23 Runway length 6890 ft Runway width 148 ft
Runway elevation 3001 ft Runway displaced threshold 0 ft Runway heading 225
Runway 06 Runway length 3609 ft Runway width 328 ft
Runway elevation 3034 ft Runway displaced threshold 0 ft Runway heading 60
Runway 24 Runway length 3609 ft Runway width 328 ft
Runway elevation 3000 ft Runway displaced threshold 0 ft Runway heading 240

 AIRPORT FREQUENCIES
Type APP Name APP Frequency 122.1 MHZ
Type TWR Name TWR Frequency 122.1 MHZ

 AIRPORT NEAR NAVIGATION AIDS
Type VOR-DME Name Leon Frequency 112000 KHZ
Type NDB Name Leon Frequency 330 KHZ